Time;durP1;ratioP1;P1;durP2;ratioP2;P2;SDS_P1;SDS_P2;PMS_P1;PMS_P2;Temp;Humidity;BMP_temperature;BMP_pressure;BME280_temperature;BME280_humidity;BME280_pressure;Samples;Min_cycle;Max_cycle;Signal;HPM_P1;HPM_P2
2022/07/11 00:01:33;;;;;;;;;;;21.00;69.90;;;;;;5070658;28;19912;-53
2022/07/11 00:03:58;;;;;;;;;;;21.00;69.90;;;;;;5070808;28;19940;-55
2022/07/11 00:06:24;;;;;;;;;;;20.90;70.40;;;;;;5070612;28;19916;-56
2022/07/11 00:08:49;;;;;;;;;;;20.90;70.00;;;;;;5070641;28;20336;-54
2022/07/11 00:11:15;;;;;;;;;;;20.90;70.20;;;;;;5070393;28;19909;-56
2022/07/11 00:13:40;;;;;;;;;;;20.80;69.80;;;;;;5070429;28;19961;-55
2022/07/11 00:16:06;;;;;;;;;;;20.90;70.00;;;;;;5070063;28;20322;-56
2022/07/11 00:18:31;;;;;;;;;;;20.80;69.60;;;;;;5070303;28;20442;-54
2022/07/11 00:20:57;;;;;;;;;;;20.80;70.00;;;;;;5070809;28;19915;-56
2022/07/11 00:23:22;;;;;;;;;;;20.80;69.40;;;;;;5070094;28;20440;-56
2022/07/11 00:25:48;;;;;;;;;;;20.80;70.00;;;;;;5070591;28;19921;-56
2022/07/11 00:28:13;;;;;;;;;;;20.70;69.80;;;;;;5070068;28;19909;-56
2022/07/11 00:30:39;;;;;;;;;;;20.80;69.90;;;;;;5069999;28;19959;-58
2022/07/11 00:33:04;;;;;;;;;;;20.70;70.10;;;;;;5070844;28;20045;-55
2022/07/11 00:35:30;;;;;;;;;;;20.70;69.90;;;;;;5069876;28;19909;-55
2022/07/11 00:37:55;;;;;;;;;;;20.60;70.20;;;;;;5070387;28;20285;-55
2022/07/11 00:40:21;;;;;;;;;;;20.60;69.90;;;;;;5070140;28;19916;-55
2022/07/11 00:42:46;;;;;;;;;;;20.60;70.70;;;;;;5070119;28;19912;-51
2022/07/11 00:45:12;;;;;;;;;;;20.60;70.40;;;;;;5072073;28;19921;-55
2022/07/11 00:47:38;;;;;;;;;;;20.50;70.60;;;;;;5073779;28;20007;-55
2022/07/11 00:50:03;;;;;;;;;;;20.50;71.60;;;;;;5073648;28;19921;-55
2022/07/11 00:52:29;;;;;;;;;;;20.50;70.60;;;;;;5073711;28;19909;-51
2022/07/11 00:54:55;;;;;;;;;;;20.50;70.90;;;;;;5073892;28;20773;-55
2022/07/11 00:57:21;;;;;;;;;;;20.50;70.40;;;;;;5069282;28;19935;-56
2022/07/11 00:59:47;;;;;;;;;;;20.50;70.60;;;;;;5073246;28;19908;-54
2022/07/11 01:02:13;;;;;;;;;;;20.40;70.70;;;;;;5073599;28;20282;-53
2022/07/11 01:04:38;;;;;;;;;;;20.40;70.90;;;;;;5048694;28;20003;-55
2022/07/11 01:07:04;;;;;;;;;;;20.40;71.30;;;;;;5073545;28;19912;-52
2022/07/11 01:09:30;;;;;;;;;;;20.40;71.60;;;;;;5073484;28;19955;-52
2022/07/11 01:11:55;;;;;;;;;;;20.40;71.90;;;;;;5071914;28;20274;-56
2022/07/11 01:14:21;;;;;;;;;;;20.30;71.30;;;;;;5073207;28;19932;-52
2022/07/11 01:16:46;;;;;;;;;;;20.30;71.60;;;;;;5073258;28;19916;-55
2022/07/11 01:19:12;;;;;;;;;;;20.30;72.00;;;;;;5073335;28;20365;-53
2022/07/11 01:21:39;;;;;;;;;;;20.30;71.50;;;;;;5074115;28;19954;-53
2022/07/11 01:24:04;;;;;;;;;;;20.30;71.90;;;;;;5072833;28;19920;-55
2022/07/11 01:26:32;;;;;;;;;;;20.30;72.30;;;;;;5072873;28;19912;-55
2022/07/11 01:29:08;;;;;;;;;;;20.20;72.40;;;;;;5072913;28;19966;-55
2022/07/11 01:31:33;;;;;;;;;;;20.30;72.90;;;;;;5073298;28;19915;-56
2022/07/11 01:33:59;;;;;;;;;;;20.20;72.40;;;;;;5072523;28;19913;-55
2022/07/11 01:36:24;;;;;;;;;;;20.20;72.90;;;;;;5073038;28;19908;-56
2022/07/11 01:38:50;;;;;;;;;;;20.20;73.30;;;;;;5072906;28;19919;-56
2022/07/11 01:41:15;;;;;;;;;;;20.10;72.50;;;;;;5065752;28;19912;-57
2022/07/11 01:43:41;;;;;;;;;;;20.10;73.10;;;;;;5072679;28;19935;-56
2022/07/11 01:46:06;;;;;;;;;;;20.10;73.10;;;;;;5072259;28;19916;-54
2022/07/11 01:48:32;;;;;;;;;;;20.10;72.80;;;;;;5072481;28;20432;-55
2022/07/11 01:50:58;;;;;;;;;;;20.10;73.00;;;;;;5072935;28;19915;-55
2022/07/11 01:53:23;;;;;;;;;;;20.10;73.20;;;;;;5072404;28;19912;-55
2022/07/11 01:55:49;;;;;;;;;;;20.10;72.80;;;;;;5072355;28;19954;-57
2022/07/11 01:58:14;;;;;;;;;;;20.10;73.20;;;;;;5066694;28;20277;-54
2022/07/11 02:00:40;;;;;;;;;;;20.10;73.20;;;;;;5072478;28;19912;-53
2022/07/11 02:03:05;;;;;;;;;;;20.00;73.20;;;;;;5072327;28;20449;-56
2022/07/11 02:05:31;;;;;;;;;;;20.00;73.10;;;;;;5054685;28;19917;-55
2022/07/11 02:08:11;;;;;;;;;;;20.00;73.00;;;;;;5071748;28;19924;-57
2022/07/11 02:10:40;;;;;;;;;;;20.00;73.10;;;;;;5071369;28;19908;-55
2022/07/11 02:13:05;;;;;;;;;;;19.90;73.20;;;;;;5072072;28;19908;-56
2022/07/11 02:15:31;;;;;;;;;;;19.90;73.20;;;;;;5072419;28;20297;-54
2022/07/11 02:17:56;;;;;;;;;;;19.90;73.60;;;;;;5065888;28;20305;-56
2022/07/11 02:20:23;;;;;;;;;;;19.90;73.40;;;;;;5066182;28;20007;-52
2022/07/11 02:22:48;;;;;;;;;;;19.90;73.40;;;;;;5071265;28;19908;-56
2022/07/11 02:25:14;;;;;;;;;;;19.90;73.40;;;;;;5071756;28;19916;-52
2022/07/11 02:27:40;;;;;;;;;;;19.90;73.60;;;;;;5071998;28;20339;-56
2022/07/11 02:30:06;;;;;;;;;;;19.80;73.40;;;;;;5071635;28;19909;-54
2022/07/11 02:32:31;;;;;;;;;;;19.90;74.00;;;;;;5071936;28;20369;-55
2022/07/11 02:34:57;;;;;;;;;;;19.90;74.20;;;;;;5072240;28;20003;-56
2022/07/11 02:37:22;;;;;;;;;;;19.80;73.60;;;;;;5071811;28;19909;-56
2022/07/11 02:39:47;;;;;;;;;;;19.80;73.90;;;;;;5071187;28;19909;-53
2022/07/11 02:42:13;;;;;;;;;;;19.80;73.80;;;;;;5071638;28;20432;-55
2022/07/11 02:44:39;;;;;;;;;;;19.80;73.90;;;;;;5071421;28;19923;-55
2022/07/11 02:47:04;;;;;;;;;;;19.70;73.70;;;;;;5071305;28;19920;-53
2022/07/11 02:49:32;;;;;;;;;;;19.70;73.90;;;;;;5071259;28;19927;-52
2022/07/11 02:51:58;;;;;;;;;;;19.70;74.20;;;;;;5071667;28;19960;-55
2022/07/11 02:54:24;;;;;;;;;;;19.70;74.00;;;;;;5071285;28;19912;-56
2022/07/11 02:56:49;;;;;;;;;;;19.60;73.90;;;;;;5071461;28;19908;-53
2022/07/11 02:59:15;;;;;;;;;;;19.60;74.00;;;;;;5071174;28;20285;-52
2022/07/11 03:01:43;;;;;;;;;;;19.70;74.70;;;;;;5071097;28;19914;-53
2022/07/11 03:04:09;;;;;;;;;;;19.60;74.00;;;;;;5071329;28;20258;-57
2022/07/11 03:06:34;;;;;;;;;;;19.60;74.00;;;;;;5070864;28;19920;-54
2022/07/11 03:09:00;;;;;;;;;;;19.60;74.60;;;;;;5070849;28;20254;-56
2022/07/11 03:11:25;;;;;;;;;;;19.60;74.50;;;;;;5070981;28;20024;-56
2022/07/11 03:13:51;;;;;;;;;;;19.60;74.60;;;;;;5071470;28;20334;-55
2022/07/11 03:16:16;;;;;;;;;;;19.60;74.80;;;;;;5070730;28;19909;-52
2022/07/11 03:18:42;;;;;;;;;;;19.50;74.90;;;;;;5052820;28;19916;-56
2022/07/11 03:21:08;;;;;;;;;;;19.50;74.10;;;;;;5070448;28;19947;-55
2022/07/11 03:23:34;;;;;;;;;;;19.50;74.80;;;;;;5071082;28;19991;-56
2022/07/11 03:26:00;;;;;;;;;;;19.50;74.50;;;;;;5070851;28;20258;-55
2022/07/11 03:28:25;;;;;;;;;;;19.40;74.70;;;;;;5071285;28;19915;-56
2022/07/11 03:30:51;;;;;;;;;;;19.40;74.70;;;;;;5071363;28;19913;-50
2022/07/11 03:33:16;;;;;;;;;;;19.40;74.80;;;;;;5070616;28;19909;-55
2022/07/11 03:35:42;;;;;;;;;;;19.40;75.30;;;;;;5070934;28;20392;-56
2022/07/11 03:38:10;;;;;;;;;;;19.40;75.80;;;;;;5064255;28;19920;-53
2022/07/11 03:40:36;;;;;;;;;;;19.40;76.20;;;;;;5070835;28;20365;-55
2022/07/11 03:43:01;;;;;;;;;;;19.40;75.70;;;;;;5071000;28;19909;-52
2022/07/11 03:45:27;;;;;;;;;;;19.40;75.20;;;;;;5070713;28;19924;-55
2022/07/11 03:47:53;;;;;;;;;;;19.40;75.40;;;;;;5070858;28;19927;-55
2022/07/11 03:50:18;;;;;;;;;;;19.40;75.50;;;;;;5070346;28;20343;-56
2022/07/11 03:52:44;;;;;;;;;;;19.30;75.70;;;;;;5071010;28;19954;-54
2022/07/11 03:55:09;;;;;;;;;;;19.30;75.60;;;;;;5070683;28;19959;-54
2022/07/11 03:57:36;;;;;;;;;;;19.30;75.90;;;;;;5070619;28;19908;-56
2022/07/11 04:00:04;;;;;;;;;;;19.30;75.70;;;;;;5070835;28;19908;-56
2022/07/11 04:02:30;;;;;;;;;;;19.30;76.20;;;;;;5070019;28;19913;-56
2022/07/11 04:04:55;;;;;;;;;;;19.30;76.30;;;;;;5070576;28;19917;-56
2022/07/11 04:07:21;;;;;;;;;;;19.30;75.90;;;;;;5070212;28;20297;-54
2022/07/11 04:09:46;;;;;;;;;;;19.30;76.10;;;;;;5070585;28;19955;-56
2022/07/11 04:12:12;;;;;;;;;;;19.30;76.50;;;;;;5070592;28;19913;-56
2022/07/11 04:14:37;;;;;;;;;;;19.30;76.20;;;;;;5070253;28;19908;-56
2022/07/11 04:17:03;;;;;;;;;;;19.30;76.20;;;;;;5070435;28;19918;-56
2022/07/11 04:19:28;;;;;;;;;;;19.30;76.70;;;;;;5071361;28;19908;-54
2022/07/11 04:21:54;;;;;;;;;;;19.30;76.90;;;;;;5073923;28;19909;-54
2022/07/11 04:24:19;;;;;;;;;;;19.30;76.90;;;;;;5074627;28;19909;-54
2022/07/11 04:26:45;;;;;;;;;;;19.30;76.30;;;;;;5074189;28;19913;-55
2022/07/11 04:29:10;;;;;;;;;;;19.30;76.90;;;;;;5073895;28;20293;-55
2022/07/11 04:31:36;;;;;;;;;;;19.30;76.90;;;;;;5074345;28;19909;-55
2022/07/11 04:34:01;;;;;;;;;;;19.30;76.80;;;;;;5073608;28;19952;-56
2022/07/11 04:36:27;;;;;;;;;;;19.40;76.70;;;;;;5073856;28;20401;-56
2022/07/11 04:38:52;;;;;;;;;;;19.40;76.80;;;;;;5073420;28;19912;-56
2022/07/11 04:41:18;;;;;;;;;;;19.40;76.90;;;;;;5074653;28;19909;-56
2022/07/11 04:43:44;;;;;;;;;;;19.40;77.50;;;;;;5073931;28;20373;-53
2022/07/11 04:46:09;;;;;;;;;;;19.40;77.30;;;;;;5073494;28;19916;-56
2022/07/11 04:48:37;;;;;;;;;;;19.40;77.20;;;;;;5073444;28;19920;-56
2022/07/11 04:51:04;;;;;;;;;;;19.50;77.20;;;;;;5073863;28;19915;-55
2022/07/11 04:53:30;;;;;;;;;;;19.50;77.60;;;;;;5073344;28;20368;-55
2022/07/11 04:55:55;;;;;;;;;;;19.50;77.60;;;;;;5066902;28;19928;-55
2022/07/11 04:58:21;;;;;;;;;;;19.50;77.20;;;;;;5073888;28;19913;-54
2022/07/11 05:00:46;;;;;;;;;;;19.60;78.00;;;;;;5073510;28;19920;-55
2022/07/11 05:03:12;;;;;;;;;;;19.70;78.00;;;;;;5073014;28;19923;-55
2022/07/11 05:05:37;;;;;;;;;;;19.70;77.80;;;;;;5073312;28;20430;-57
2022/07/11 05:08:03;;;;;;;;;;;19.70;77.50;;;;;;5073135;28;19912;-56
2022/07/11 05:10:31;;;;;;;;;;;19.80;77.60;;;;;;5072581;28;19914;-56
2022/07/11 05:12:56;;;;;;;;;;;19.90;77.70;;;;;;5073177;28;19919;-57
2022/07/11 05:15:22;;;;;;;;;;;20.00;77.70;;;;;;5072577;28;19912;-54
2022/07/11 05:17:48;;;;;;;;;;;20.00;77.60;;;;;;5073325;28;19909;-55
2022/07/11 05:20:14;;;;;;;;;;;20.00;77.40;;;;;;5072793;28;19923;-57
2022/07/11 05:22:39;;;;;;;;;;;20.00;77.50;;;;;;5072584;28;20361;-54
2022/07/11 05:25:05;;;;;;;;;;;20.00;77.40;;;;;;5072773;28;19942;-56
2022/07/11 05:27:31;;;;;;;;;;;20.10;77.50;;;;;;5072941;28;19912;-57
2022/07/11 05:29:56;;;;;;;;;;;20.10;77.30;;;;;;5072487;28;20013;-53
2022/07/11 05:32:21;;;;;;;;;;;20.10;77.20;;;;;;5072275;28;19913;-57
2022/07/11 05:34:47;;;;;;;;;;;20.20;77.60;;;;;;5072606;28;19973;-57
2022/07/11 05:37:13;;;;;;;;;;;20.20;77.40;;;;;;5072660;28;20031;-57
2022/07/11 05:39:38;;;;;;;;;;;20.20;77.20;;;;;;5072465;28;19909;-54
2022/07/11 05:42:04;;;;;;;;;;;20.30;77.20;;;;;;5072397;28;19920;-55
2022/07/11 05:44:29;;;;;;;;;;;20.30;77.10;;;;;;5072485;28;19913;-57
2022/07/11 05:47:01;;;;;;;;;;;20.30;77.10;;;;;;5070627;28;19912;-56
2022/07/11 05:49:27;;;;;;;;;;;20.40;77.10;;;;;;5071453;28;19925;-57
2022/07/11 05:51:53;;;;;;;;;;;20.40;77.00;;;;;;5072569;28;19999;-58
2022/07/11 05:54:18;;;;;;;;;;;20.40;77.10;;;;;;5072441;28;19908;-56
2022/07/11 05:56:44;;;;;;;;;;;20.40;77.00;;;;;;5071770;28;19916;-58
2022/07/11 05:59:09;;;;;;;;;;;20.40;76.90;;;;;;5071634;28;20326;-56
2022/07/11 06:01:35;;;;;;;;;;;20.40;76.90;;;;;;5071710;28;19917;-54
2022/07/11 06:04:01;;;;;;;;;;;20.40;76.80;;;;;;5072324;28;19908;-57
2022/07/11 06:06:27;;;;;;;;;;;20.40;77.00;;;;;;5072351;28;20412;-56
2022/07/11 06:08:53;;;;;;;;;;;20.50;76.90;;;;;;5071936;28;19909;-58
2022/07/11 06:11:19;;;;;;;;;;;20.50;76.80;;;;;;5071785;28;19915;-57
2022/07/11 06:13:45;;;;;;;;;;;20.50;76.80;;;;;;5065200;28;19916;-57
2022/07/11 06:16:11;;;;;;;;;;;20.50;76.80;;;;;;5071460;28;20423;-55
2022/07/11 06:18:37;;;;;;;;;;;20.60;77.10;;;;;;5074021;28;19913;-53
2022/07/11 06:21:03;;;;;;;;;;;20.60;76.70;;;;;;5071762;28;19962;-54
2022/07/11 06:23:28;;;;;;;;;;;20.60;76.90;;;;;;5071204;28;20015;-56
2022/07/11 06:25:54;;;;;;;;;;;20.70;77.00;;;;;;5071802;28;19921;-58
2022/07/11 06:28:20;;;;;;;;;;;20.70;77.00;;;;;;5070376;28;19913;-58
2022/07/11 06:30:45;;;;;;;;;;;20.80;77.00;;;;;;5070930;28;19935;-59
2022/07/11 06:33:11;;;;;;;;;;;20.80;76.90;;;;;;5074465;28;20336;-59
2022/07/11 06:35:36;;;;;;;;;;;20.90;77.00;;;;;;5081039;28;19913;-58
2022/07/11 06:38:02;;;;;;;;;;;20.90;76.60;;;;;;5078458;28;19908;-56
2022/07/11 06:40:28;;;;;;;;;;;21.00;76.90;;;;;;5080390;28;19938;-57
2022/07/11 06:42:54;;;;;;;;;;;21.00;76.70;;;;;;5077323;28;19912;-57
2022/07/11 06:45:20;;;;;;;;;;;21.10;76.50;;;;;;5076067;28;19960;-59
2022/07/11 06:47:45;;;;;;;;;;;21.10;76.50;;;;;;5071067;28;20355;-55
2022/07/11 06:50:11;;;;;;;;;;;21.10;76.20;;;;;;5069489;28;19908;-59
2022/07/11 06:52:36;;;;;;;;;;;21.10;76.40;;;;;;5061404;28;19919;-58
2022/07/11 06:55:02;;;;;;;;;;;21.20;76.40;;;;;;5068348;28;19912;-58
2022/07/11 06:57:28;;;;;;;;;;;21.30;76.40;;;;;;5068645;28;20418;-57
2022/07/11 06:59:53;;;;;;;;;;;21.20;75.90;;;;;;5068439;28;20335;-58
2022/07/11 07:02:19;;;;;;;;;;;21.30;76.10;;;;;;5064909;28;19970;-58
2022/07/11 07:04:45;;;;;;;;;;;21.30;76.20;;;;;;5068684;28;19928;-58
2022/07/11 07:07:10;;;;;;;;;;;21.30;76.10;;;;;;5068942;28;19913;-58
2022/07/11 07:09:36;;;;;;;;;;;21.40;75.80;;;;;;5068707;28;19920;-59
2022/07/11 07:12:01;;;;;;;;;;;21.40;75.80;;;;;;5068284;28;19912;-57
2022/07/11 07:14:27;;;;;;;;;;;21.40;75.90;;;;;;5068947;28;19958;-58
2022/07/11 07:16:52;;;;;;;;;;;21.40;76.00;;;;;;5069214;28;20393;-57
2022/07/11 07:19:18;;;;;;;;;;;21.50;75.80;;;;;;5068722;28;19999;-59
2022/07/11 07:21:44;;;;;;;;;;;21.50;75.60;;;;;;5069149;28;19912;-59
2022/07/11 07:24:09;;;;;;;;;;;21.50;75.70;;;;;;5068640;28;20385;-57
2022/07/11 07:26:35;;;;;;;;;;;21.50;75.70;;;;;;5068207;28;19920;-58
2022/07/11 07:29:00;;;;;;;;;;;21.60;75.60;;;;;;5068173;28;19920;-58
2022/07/11 07:31:26;;;;;;;;;;;21.60;75.30;;;;;;5071467;28;19970;-59
2022/07/11 07:33:51;;;;;;;;;;;21.60;76.10;;;;;;5067979;28;20468;-58
2022/07/11 07:36:17;;;;;;;;;;;21.70;75.40;;;;;;5068536;28;19919;-59
2022/07/11 07:38:46;;;;;;;;;;;21.70;75.30;;;;;;5068564;28;19913;-58
2022/07/11 07:41:15;;;;;;;;;;;21.80;75.50;;;;;;5068767;28;19913;-59
2022/07/11 07:43:43;;;;;;;;;;;21.80;75.40;;;;;;5067443;28;19912;-56
2022/07/11 07:46:10;;;;;;;;;;;21.90;75.30;;;;;;5068117;28;20509;-58
2022/07/11 07:48:36;;;;;;;;;;;21.90;74.60;;;;;;5068238;28;19921;-58
2022/07/11 07:51:02;;;;;;;;;;;21.90;74.80;;;;;;5070612;28;19940;-57
2022/07/11 07:53:27;;;;;;;;;;;21.90;74.30;;;;;;5071483;28;20309;-58
2022/07/11 07:55:53;;;;;;;;;;;22.00;74.00;;;;;;5071951;28;19989;-58
2022/07/11 07:58:18;;;;;;;;;;;22.00;74.20;;;;;;5072503;28;19916;-59
2022/07/11 08:03:28;;;;;;;;;;;22.00;74.10;;;;;;5071783;28;19963;-59
2022/07/11 08:05:53;;;;;;;;;;;22.10;73.80;;;;;;5072854;28;19929;-58
2022/07/11 08:08:19;;;;;;;;;;;22.10;73.70;;;;;;5074069;28;19913;-57
2022/07/11 08:10:44;;;;;;;;;;;22.10;73.70;;;;;;5071809;28;19970;-58
2022/07/11 08:13:10;;;;;;;;;;;22.10;73.60;;;;;;5071557;28;19916;-59
2022/07/11 08:15:35;;;;;;;;;;;22.20;73.60;;;;;;5071937;28;19924;-57
2022/07/11 08:18:01;;;;;;;;;;;22.20;73.40;;;;;;5069298;28;19999;-58
2022/07/11 08:20:26;;;;;;;;;;;22.20;73.40;;;;;;5044906;28;20772;-58
2022/07/11 08:22:52;;;;;;;;;;;22.30;73.50;;;;;;5071445;28;19920;-58
2022/07/11 08:25:17;;;;;;;;;;;22.30;73.40;;;;;;5071737;28;19925;-59
2022/07/11 08:27:43;;;;;;;;;;;22.40;73.50;;;;;;5072233;28;19917;-58
2022/07/11 08:30:27;;;;;;;;;;;22.30;73.50;;;;;;5071930;28;19916;-57
2022/07/11 08:32:52;;;;;;;;;;;22.40;72.90;;;;;;5071628;28;19936;-58
2022/07/11 08:35:18;;;;;;;;;;;22.40;73.20;;;;;;5071933;28;20461;-59
2022/07/11 08:37:44;;;;;;;;;;;22.40;73.20;;;;;;5072018;28;20010;-58
2022/07/11 08:40:09;;;;;;;;;;;22.50;73.30;;;;;;5071611;28;19958;-58
2022/07/11 08:42:44;;;;;;;;;;;22.50;73.00;;;;;;5071778;28;19985;-58
2022/07/11 08:45:11;;;;;;;;;;;22.50;73.00;;;;;;5070674;28;19928;-58
2022/07/11 08:47:36;;;;;;;;;;;22.50;72.70;;;;;;5071767;28;20292;-59
2022/07/11 08:50:03;;;;;;;;;;;22.50;72.90;;;;;;5071543;28;19928;-57
2022/07/11 08:52:28;;;;;;;;;;;22.50;72.80;;;;;;5071164;28;20471;-58
2022/07/11 08:54:55;;;;;;;;;;;22.60;73.10;;;;;;5072962;28;19920;-59
2022/07/11 08:57:20;;;;;;;;;;;22.70;72.50;;;;;;5071267;28;20384;-59
2022/07/11 08:59:47;;;;;;;;;;;22.70;72.50;;;;;;5071390;28;19998;-58
2022/07/11 09:02:12;;;;;;;;;;;22.70;72.70;;;;;;5071272;28;19912;-58
2022/07/11 09:04:38;;;;;;;;;;;22.70;72.10;;;;;;5070017;28;20061;-59
2022/07/11 09:07:03;;;;;;;;;;;22.80;72.40;;;;;;5071009;28;20165;-58
2022/07/11 09:09:29;;;;;;;;;;;22.80;72.70;;;;;;5071154;28;20042;-57
2022/07/11 09:11:56;;;;;;;;;;;22.90;72.40;;;;;;5067052;28;19920;-58
2022/07/11 09:14:22;;;;;;;;;;;22.90;72.70;;;;;;5071515;28;19912;-59
2022/07/11 09:16:51;;;;;;;;;;;22.90;72.20;;;;;;5071025;28;19912;-57
2022/07/11 09:19:21;;;;;;;;;;;22.90;72.10;;;;;;5068743;28;19912;-58
2022/07/11 09:27:48;;;;;;;;;;;23.00;72.20;;;;;;5069612;28;19918;-57
2022/07/11 09:30:24;;;;;;;;;;;23.00;71.90;;;;;;5070304;28;20315;-58
2022/07/11 09:33:12;;;;;;;;;;;23.00;72.20;;;;;;5070019;28;19912;-59
2022/07/11 09:35:42;;;;;;;;;;;23.10;72.20;;;;;;5067008;28;19916;-57
2022/07/11 09:38:09;;;;;;;;;;;23.20;72.60;;;;;;5068699;28;20335;-58
2022/07/11 09:43:25;;;;;;;;;;;23.30;72.40;;;;;;5069702;28;19926;-57
2022/07/11 09:46:09;;;;;;;;;;;23.40;72.00;;;;;;5069594;28;20038;-58
2022/07/11 09:48:35;;;;;;;;;;;23.40;72.20;;;;;;5066915;28;19925;-58
2022/07/11 09:51:04;;;;;;;;;;;23.40;72.00;;;;;;5068373;28;19919;-58
2022/07/11 09:53:31;;;;;;;;;;;23.40;72.20;;;;;;5069891;28;19916;-58
2022/07/11 09:55:56;;;;;;;;;;;23.50;72.20;;;;;;5069443;28;20343;-58
2022/07/11 10:01:11;;;;;;;;;;;23.60;71.50;;;;;;5068299;28;19957;-57
2022/07/11 10:03:37;;;;;;;;;;;23.60;71.60;;;;;;5069394;28;20003;-57
2022/07/11 10:06:02;;;;;;;;;;;23.60;71.30;;;;;;5068209;28;19920;-57
2022/07/11 10:08:28;;;;;;;;;;;23.60;71.40;;;;;;5069621;28;19943;-58
2022/07/11 10:10:53;;;;;;;;;;;23.60;71.30;;;;;;5069836;28;19943;-57
2022/07/11 10:13:19;;;;;;;;;;;23.60;71.70;;;;;;5068991;28;20007;-56
2022/07/11 10:18:37;;;;;;;;;;;23.70;71.60;;;;;;5067924;28;19919;-58
2022/07/11 10:21:05;;;;;;;;;;;23.80;71.20;;;;;;5069761;28;19920;-58
2022/07/11 10:23:40;;;;;;;;;;;23.90;71.00;;;;;;5069214;28;19991;-57
2022/07/11 10:26:14;;;;;;;;;;;23.80;70.70;;;;;;5068718;28;19924;-57
2022/07/11 10:28:42;;;;;;;;;;;23.90;71.20;;;;;;5066550;28;20444;-57
2022/07/11 10:31:19;;;;;;;;;;;23.90;70.60;;;;;;5068128;28;20379;-59
2022/07/11 10:34:03;;;;;;;;;;;24.00;70.60;;;;;;5066871;28;19919;-58
2022/07/11 10:36:30;;;;;;;;;;;23.90;70.60;;;;;;5068913;28;19920;-58
2022/07/11 10:39:24;;;;;;;;;;;24.00;71.00;;;;;;5069505;28;19925;-58
2022/07/11 10:41:50;;;;;;;;;;;24.10;70.40;;;;;;5065656;28;20012;-58
2022/07/11 10:44:16;;;;;;;;;;;24.20;70.80;;;;;;5067047;28;19952;-58
2022/07/11 10:46:42;;;;;;;;;;;24.30;70.70;;;;;;5068572;28;19963;-55
2022/07/11 10:49:14;;;;;;;;;;;24.40;69.70;;;;;;5068412;28;20342;-58
2022/07/11 10:51:49;;;;;;;;;;;24.30;69.60;;;;;;5065886;28;19912;-58
2022/07/11 10:54:20;;;;;;;;;;;24.30;69.60;;;;;;5067514;28;19916;-58
2022/07/11 10:56:56;;;;;;;;;;;24.20;69.30;;;;;;5069029;28;19939;-58
2022/07/11 10:59:22;;;;;;;;;;;24.30;68.80;;;;;;5067363;28;20031;-59
2022/07/11 11:02:04;;;;;;;;;;;24.30;69.20;;;;;;5068920;28;20015;-58
2022/07/11 11:04:43;;;;;;;;;;;24.30;68.60;;;;;;5051096;28;20440;-57
2022/07/11 11:07:28;;;;;;;;;;;24.40;69.00;;;;;;5067510;28;20079;-58
2022/07/11 11:09:53;;;;;;;;;;;24.40;69.10;;;;;;5067345;28;20011;-59
2022/07/11 11:12:20;;;;;;;;;;;24.50;68.90;;;;;;5068596;28;20371;-59
2022/07/11 11:14:45;;;;;;;;;;;24.60;68.50;;;;;;5068688;28;19946;-59
2022/07/11 11:17:29;;;;;;;;;;;24.60;68.80;;;;;;5067760;28;19916;-59
2022/07/11 11:19:55;;;;;;;;;;;24.70;68.40;;;;;;5067759;28;19921;-59
2022/07/11 11:22:22;;;;;;;;;;;24.70;68.40;;;;;;5068649;28;20327;-59
2022/07/11 11:24:49;;;;;;;;;;;24.60;68.10;;;;;;5068541;28;19913;-59
2022/07/11 11:27:15;;;;;;;;;;;24.70;68.20;;;;;;5069043;28;19920;-57
2022/07/11 11:29:42;;;;;;;;;;;24.70;68.00;;;;;;5068359;28;19999;-58
2022/07/11 11:32:08;;;;;;;;;;;24.80;68.00;;;;;;5068057;28;19920;-58
2022/07/11 11:34:33;;;;;;;;;;;24.80;68.10;;;;;;5068239;28;19913;-58
2022/07/11 11:37:00;;;;;;;;;;;24.90;68.10;;;;;;5068167;28;20027;-59
2022/07/11 11:39:30;;;;;;;;;;;24.90;68.20;;;;;;5068006;28;19931;-59
2022/07/11 11:42:06;;;;;;;;;;;24.90;68.20;;;;;;5068435;28;20488;-57
2022/07/11 11:44:32;;;;;;;;;;;25.00;67.50;;;;;;5067875;28;19922;-58
2022/07/11 11:46:57;;;;;;;;;;;24.90;67.40;;;;;;5068271;28;20007;-59
2022/07/11 11:49:23;;;;;;;;;;;25.00;67.10;;;;;;5067936;28;20016;-58
2022/07/11 11:51:48;;;;;;;;;;;25.00;67.40;;;;;;5069911;28;19987;-58
2022/07/11 11:54:24;;;;;;;;;;;25.00;67.30;;;;;;5071826;28;19955;-58
2022/07/11 11:56:50;;;;;;;;;;;25.00;67.50;;;;;;5072868;28;19981;-58
2022/07/11 11:59:16;;;;;;;;;;;25.00;67.30;;;;;;5071556;28;19916;-58
2022/07/11 12:01:43;;;;;;;;;;;25.10;67.00;;;;;;5051450;28;19958;-59
2022/07/11 12:04:10;;;;;;;;;;;25.20;66.10;;;;;;5072507;28;19920;-59
2022/07/11 12:06:37;;;;;;;;;;;25.20;66.30;;;;;;5072095;28;20017;-58
2022/07/11 12:09:04;;;;;;;;;;;25.20;66.60;;;;;;5072586;28;19919;-59
2022/07/11 12:11:30;;;;;;;;;;;25.20;67.00;;;;;;5036818;28;19939;-59
2022/07/11 12:14:01;;;;;;;;;;;25.30;66.90;;;;;;5071201;28;19921;-58
2022/07/11 12:16:39;;;;;;;;;;;25.30;66.60;;;;;;5067713;28;19912;-58
2022/07/11 12:19:07;;;;;;;;;;;25.30;66.20;;;;;;5067429;28;19920;-56
2022/07/11 12:21:33;;;;;;;;;;;25.40;66.30;;;;;;5064208;28;19967;-56
2022/07/11 12:24:02;;;;;;;;;;;25.40;65.90;;;;;;5067240;28;20266;-57
2022/07/11 12:26:29;;;;;;;;;;;25.50;66.00;;;;;;5065833;28;19925;-56
2022/07/11 12:29:05;;;;;;;;;;;25.50;66.40;;;;;;5067870;28;19912;-55
2022/07/11 12:31:46;;;;;;;;;;;25.50;66.30;;;;;;5068096;28;19936;-56
2022/07/11 12:34:11;;;;;;;;;;;25.70;65.40;;;;;;5066628;28;19968;-56
2022/07/11 12:36:37;;;;;;;;;;;25.80;65.50;;;;;;5067495;28;19994;-52
2022/07/11 12:39:04;;;;;;;;;;;25.90;65.60;;;;;;5067789;28;19966;-55
2022/07/11 12:41:30;;;;;;;;;;;25.90;65.80;;;;;;5070602;28;19912;-54
2022/07/11 12:46:40;;;;;;;;;;;26.00;64.40;;;;;;5070338;28;19977;-56
2022/07/11 12:49:07;;;;;;;;;;;26.10;63.90;;;;;;5070753;28;19932;-56
2022/07/11 12:51:42;;;;;;;;;;;26.00;64.10;;;;;;5070422;28;19981;-55
2022/07/11 12:54:09;;;;;;;;;;;26.00;63.90;;;;;;5071390;28;20007;-56
2022/07/11 12:56:35;;;;;;;;;;;26.00;64.10;;;;;;5071285;28;19913;-54
2022/07/11 12:59:01;;;;;;;;;;;26.10;64.10;;;;;;5070868;28;19920;-56
2022/07/11 13:01:27;;;;;;;;;;;26.10;64.70;;;;;;5070750;28;19913;-54
2022/07/11 13:03:53;;;;;;;;;;;26.20;64.40;;;;;;5041997;28;20281;-55
2022/07/11 13:08:42;;;;;;;;;;;26.30;63.30;;;;;;5071094;28;20452;-53
2022/07/11 13:09:05;;;;;;;;;;;26.30;63.50;;;;;;5070456;28;19917;-56
2022/07/11 13:11:31;;;;;;;;;;;26.20;64.20;;;;;;5070948;28;20360;-56
2022/07/11 13:13:57;;;;;;;;;;;26.30;62.80;;;;;;5070274;28;19935;-56
2022/07/11 13:16:22;;;;;;;;;;;26.30;62.20;;;;;;5068327;28;20019;-52
2022/07/11 13:18:48;;;;;;;;;;;26.30;62.30;;;;;;5071239;28;19982;-54
2022/07/11 13:21:14;;;;;;;;;;;26.20;62.20;;;;;;5070955;28;19912;-56
2022/07/11 13:23:40;;;;;;;;;;;26.30;62.20;;;;;;5070653;28;19963;-56
2022/07/11 13:26:06;;;;;;;;;;;26.30;61.80;;;;;;5069926;28;19924;-55
2022/07/11 13:28:31;;;;;;;;;;;26.40;62.20;;;;;;5070752;28;19912;-55
2022/07/11 13:30:58;;;;;;;;;;;26.40;62.70;;;;;;5070351;28;19952;-56
2022/07/11 13:33:23;;;;;;;;;;;26.40;62.30;;;;;;5070268;28;19970;-55
2022/07/11 13:35:49;;;;;;;;;;;26.40;62.60;;;;;;5070237;28;20012;-56
2022/07/11 13:38:15;;;;;;;;;;;26.50;61.40;;;;;;5070007;28;19913;-55
2022/07/11 13:40:41;;;;;;;;;;;26.60;61.90;;;;;;5069825;28;19912;-56
2022/07/11 13:43:07;;;;;;;;;;;26.70;61.50;;;;;;5070201;28;20296;-53
2022/07/11 13:45:33;;;;;;;;;;;26.80;61.20;;;;;;5069702;28;19921;-56
2022/07/11 13:47:58;;;;;;;;;;;26.80;61.60;;;;;;5069295;28;19956;-55
2022/07/11 13:50:24;;;;;;;;;;;26.80;61.90;;;;;;5069081;28;19961;-54
2022/07/11 13:52:50;;;;;;;;;;;26.80;62.20;;;;;;5070568;28;20376;-57
2022/07/11 13:55:19;;;;;;;;;;;26.90;61.20;;;;;;5070123;28;19955;-54
2022/07/11 13:57:46;;;;;;;;;;;26.90;61.40;;;;;;5069940;28;20398;-56
2022/07/11 14:00:12;;;;;;;;;;;26.90;61.70;;;;;;5070250;28;19912;-55
2022/07/11 14:02:37;;;;;;;;;;;27.00;60.90;;;;;;5070030;28;19939;-54
2022/07/11 14:05:03;;;;;;;;;;;26.90;61.10;;;;;;5070080;28;20284;-55
2022/07/11 14:07:28;;;;;;;;;;;26.90;60.80;;;;;;5069763;28;20308;-56
2022/07/11 14:09:54;;;;;;;;;;;26.90;61.10;;;;;;5069378;28;19912;-56
2022/07/11 14:12:20;;;;;;;;;;;27.00;60.70;;;;;;5069745;28;19919;-55
2022/07/11 14:14:45;;;;;;;;;;;27.10;60.20;;;;;;5069329;28;19920;-54
2022/07/11 14:17:11;;;;;;;;;;;27.10;59.90;;;;;;5069363;28;19912;-56
2022/07/11 14:19:38;;;;;;;;;;;27.10;60.70;;;;;;5070187;28;20049;-54
2022/07/11 14:22:07;;;;;;;;;;;27.10;61.10;;;;;;5067057;28;19923;-55
2022/07/11 14:24:33;;;;;;;;;;;27.10;60.80;;;;;;5050803;28;19916;-56
2022/07/11 14:26:59;;;;;;;;;;;27.20;60.10;;;;;;5069010;28;19949;-55
2022/07/11 14:29:25;;;;;;;;;;;27.30;59.90;;;;;;5065385;28;19913;-55
2022/07/11 14:31:51;;;;;;;;;;;27.30;60.20;;;;;;5068921;28;19966;-56
2022/07/11 14:34:17;;;;;;;;;;;27.30;60.30;;;;;;5070023;28;20365;-54